createdAt,value
2022-08-07T00:04:00.588Z,73.78
2022-08-07T00:06:33.350Z,73.96
2022-08-07T00:09:16.272Z,74.16
2022-08-07T00:11:54.144Z,74.87
2022-08-07T00:14:25.474Z,74.53
2022-08-07T00:16:52.631Z,74.63
2022-08-07T00:19:21.388Z,74.65
2022-08-07T00:21:57.083Z,75.21
2022-08-07T00:24:28.565Z,75.09
2022-08-07T00:27:07.512Z,75.05
2022-08-07T00:29:37.128Z,75.49
2022-08-07T00:32:05.758Z,75.72
2022-08-07T00:34:35.364Z,75.47
2022-08-07T00:37:05.015Z,75.81
2022-08-07T00:39:32.294Z,76.19
2022-08-07T00:42:02.444Z,76.51
2022-08-07T00:44:33.038Z,76.95
2022-08-07T00:47:00.822Z,76.33
2022-08-07T00:50:19.916Z,75.81
2022-08-07T00:52:19.916Z,75.60
2022-08-07T00:54:55.071Z,75.22
2022-08-07T00:57:25.816Z,75.46
2022-08-07T00:59:53.740Z,75.95
2022-08-07T01:02:29.195Z,75.56
2022-08-07T01:04:58.814Z,75.40
2022-08-07T01:07:27.640Z,74.74
2022-08-07T01:10:05.935Z,75.12
2022-08-07T01:12:40.124Z,75.45
2022-08-07T01:15:22.678Z,75.30
2022-08-07T01:18:03.010Z,75.27
2022-08-07T01:20:35.345Z,74.72
2022-08-07T01:23:12.707Z,75.75
2022-08-07T01:25:55.280Z,76.06
2022-08-07T01:28:23.679Z,75.31
2022-08-07T01:30:52.101Z,75.61
2022-08-07T01:33:18.662Z,75.48
2022-08-07T01:35:53.234Z,75.53
2022-08-07T01:38:25.378Z,75.24
2022-08-07T01:40:59.662Z,75.62
2022-08-07T01:43:34.800Z,75.78
2022-08-07T01:46:05.726Z,76.48
2022-08-07T01:48:35.445Z,76.60
2022-08-07T01:52:01.032Z,76.33
2022-08-07T01:54:12.807Z,76.71
2022-08-07T01:57:24.300Z,76.96
2022-08-07T01:59:57.024Z,77.02
2022-08-07T02:03:12.059Z,76.53
2022-08-07T02:06:00.008Z,76.30
2022-08-07T02:08:30.602Z,75.91
2022-08-07T02:10:59.685Z,76.35
2022-08-07T02:13:58.277Z,76.22
2022-08-07T02:16:19.738Z,76.42
2022-08-07T02:18:48.098Z,76.09
2022-08-07T02:21:19.837Z,76.53
2022-08-07T02:23:47.655Z,76.26
2022-08-07T02:26:32.831Z,76.49
2022-08-07T02:29:02.771Z,77.20
2022-08-07T02:31:30.973Z,77.61
2022-08-07T02:34:03.446Z,77.83
2022-08-07T02:36:33.783Z,76.89
2022-08-07T02:39:16.253Z,77.78
2022-08-07T02:41:50.521Z,77.44
2022-08-07T02:44:18.044Z,77.99
2022-08-07T02:46:52.715Z,78.19
2022-08-07T02:49:55.614Z,77.48
2022-08-07T02:52:10.648Z,78.11
2022-08-07T02:55:00.981Z,77.95
2022-08-07T02:57:34.065Z,77.60
2022-08-07T03:00:05.108Z,77.87
2022-08-07T03:02:37.991Z,78.26
2022-08-07T03:05:22.986Z,77.93
2022-08-07T03:08:07.462Z,77.84
2022-08-07T03:10:46.215Z,77.58
2022-08-07T03:13:19.288Z,78.06
2022-08-07T03:15:56.742Z,78.17
2022-08-07T03:18:34.565Z,78.14
2022-08-07T03:21:08.497Z,78.47
2022-08-07T03:24:21.038Z,78.49
2022-08-07T03:26:30.195Z,78.19
2022-08-07T03:28:58.791Z,78.39
2022-08-07T03:31:43.255Z,78.26
2022-08-07T03:34:18.535Z,78.52
2022-08-07T03:36:50.588Z,78.45
2022-08-07T03:39:45.990Z,78.65
2022-08-07T03:42:06.107Z,77.81
2022-08-07T03:44:37.509Z,79.05
2022-08-07T03:47:13.287Z,78.51
2022-08-07T03:49:47.778Z,79.28
2022-08-07T03:52:22.661Z,78.97
2022-08-07T03:54:54.547Z,79.07
2022-08-07T03:58:34.862Z,78.67
2022-08-07T04:00:14.304Z,79.52
2022-08-07T04:02:43.051Z,79.44
2022-08-07T04:05:14.057Z,79.30
2022-08-07T04:07:46.321Z,79.57
2022-08-07T04:10:15.669Z,78.87
2022-08-07T04:12:46.452Z,78.84
2022-08-07T04:15:15.834Z,79.20
2022-08-07T04:18:56.559Z,78.71
2022-08-07T04:20:31.660Z,79.35
2022-08-07T04:23:06.187Z,79.08
2022-08-07T04:25:39.130Z,79.25
2022-08-07T04:28:08.107Z,79.77
2022-08-07T04:30:43.994Z,79.10
2022-08-07T04:33:23.929Z,79.54
2022-08-07T04:35:54.365Z,79.53
2022-08-07T04:38:22.189Z,79.03
2022-08-07T04:40:52.625Z,78.99
2022-08-07T04:44:09.947Z,79.05
2022-08-07T04:46:34.414Z,79.86
2022-08-07T04:49:37.777Z,80.79
2022-08-07T04:52:18.626Z,80.86
2022-08-07T04:55:15.190Z,80.65
2022-08-07T04:58:10.149Z,81.09
2022-08-07T05:00:50.210Z,80.81
2022-08-07T05:04:07.717Z,80.77
2022-08-07T05:06:51.595Z,80.45
2022-08-07T05:09:57.394Z,81.03
2022-08-07T05:12:35.029Z,80.60
2022-08-07T05:15:23.638Z,81.20
2022-08-07T05:17:56.550Z,81.64
2022-08-07T05:20:27.121Z,82.18
2022-08-07T05:22:58.385Z,82.66
2022-08-07T05:26:09.889Z,83.02
2022-08-07T05:28:22.613Z,83.24
2022-08-07T05:30:52.811Z,82.95
2022-08-07T05:33:21.532Z,82.40
2022-08-07T05:35:51.170Z,82.11
2022-08-07T05:38:59.451Z,82.40
2022-08-07T05:41:14.423Z,82.54
2022-08-07T05:44:08.613Z,82.57
2022-08-07T05:46:38.161Z,82.29
2022-08-07T05:49:12.536Z,82.13
2022-08-07T05:51:42.185Z,81.36
2022-08-07T05:54:30.208Z,81.46
2022-08-07T05:56:57.680Z,80.90
2022-08-07T05:59:27.286Z,80.25
2022-08-07T06:01:57.314Z,79.61
2022-08-07T06:04:30.087Z,79.57
2022-08-07T06:07:03.645Z,78.00
2022-08-07T06:10:03.702Z,75.63
2022-08-07T06:12:18.393Z,75.72
2022-08-07T06:14:49.495Z,72.90
2022-08-07T06:17:18.051Z,73.73
2022-08-07T06:19:52.391Z,74.87
2022-08-07T06:22:36.889Z,75.28
2022-08-07T06:25:06.451Z,72.73
2022-08-07T06:27:59.687Z,71.18
2022-08-07T06:30:35.302Z,69.86
2022-08-07T06:36:12.918Z,67.89
2022-08-07T06:42:02.123Z,69.79
2022-08-07T06:44:33.942Z,69.69
2022-08-07T06:47:12.371Z,68.08
2022-08-07T06:49:51.826Z,68.22
2022-08-07T06:52:31.928Z,66.95
2022-08-07T06:55:33.474Z,65.05
2022-08-07T06:57:57.187Z,64.36
2022-08-07T07:00:28.394Z,64.10
2022-08-07T07:02:57.679Z,65.71
2022-08-07T07:06:04.954Z,64.21
2022-08-07T07:08:18.313Z,63.76
2022-08-07T07:10:56.597Z,61.35
2022-08-07T07:13:55.536Z,60.99
2022-08-07T07:16:22.112Z,61.24
2022-08-07T07:18:52.473Z,59.29
2022-08-07T07:22:04.030Z,58.76
2022-08-07T07:24:21.249Z,60.19
2022-08-07T07:26:52.544Z,58.14
2022-08-07T07:29:56.017Z,58.82
2022-08-07T07:32:12.276Z,58.15
2022-08-07T07:34:44.178Z,56.47
2022-08-07T07:37:45.367Z,56.63
2022-08-07T07:40:14.806Z,56.86
2022-08-07T07:42:51.128Z,56.15
2022-08-07T07:46:36.989Z,56.42
2022-08-07T07:48:34.753Z,56.96
2022-08-07T07:51:02.632Z,55.30
2022-08-07T07:53:50.342Z,54.10
2022-08-07T07:56:19.432Z,53.52
2022-08-07T07:58:59.921Z,54.36
2022-08-07T08:04:12.742Z,53.01
2022-08-07T08:06:50.827Z,53.47
2022-08-07T08:09:22.708Z,54.78
2022-08-07T08:12:02.179Z,53.17
2022-08-07T08:14:36.576Z,53.57
2022-08-07T08:17:55.464Z,53.37
2022-08-07T08:20:18.779Z,53.57
2022-08-07T08:23:08.234Z,52.93
2022-08-07T08:25:56.544Z,52.58
2022-08-07T08:28:38.409Z,52.89
2022-08-07T08:31:59.296Z,53.08
2022-08-07T08:34:12.370Z,53.84
2022-08-07T08:36:57.819Z,54.18
2022-08-07T08:39:39.328Z,54.01
2022-08-07T08:42:27.495Z,53.45
2022-08-07T08:45:04.245Z,53.68
2022-08-07T08:47:59.199Z,53.85
2022-08-07T08:50:39.172Z,52.29
2022-08-07T08:53:19.698Z,53.39
2022-08-07T08:55:58.533Z,53.18
2022-08-07T08:58:41.358Z,52.97
2022-08-07T09:01:18.478Z,53.02
2022-08-07T09:04:25.967Z,52.42
2022-08-07T09:07:03.450Z,53.37
2022-08-07T09:09:56.568Z,52.33
2022-08-07T09:12:38.079Z,51.24
2022-08-07T09:16:25.227Z,51.20
2022-08-07T09:18:16.855Z,51.89
2022-08-07T09:21:13.752Z,53.96
2022-08-07T09:24:33.425Z,52.59
2022-08-07T09:27:54.497Z,51.25
2022-08-07T09:30:37.301Z,51.97
2022-08-07T09:33:53.087Z,52.40
2022-08-07T09:36:30.195Z,51.10
2022-08-07T09:39:53.706Z,51.79
2022-08-07T09:42:25.048Z,52.20
2022-08-07T09:47:24.221Z,51.48
2022-08-07T09:48:30.158Z,50.91
2022-08-07T09:52:16.368Z,50.74
2022-08-07T09:54:27.204Z,50.89
2022-08-07T09:57:59.411Z,49.53
2022-08-07T10:00:32.536Z,49.95
2022-08-07T10:04:06.492Z,50.38
2022-08-07T10:06:36.510Z,50.33
2022-08-07T10:09:15.340Z,49.40
2022-08-07T10:12:10.513Z,48.85
2022-08-07T10:14:43.235Z,49.05
2022-08-07T10:18:02.546Z,47.43
2022-08-07T10:21:03.717Z,46.72
2022-08-07T10:24:08.695Z,46.23
2022-08-07T10:26:52.966Z,46.76
2022-08-07T10:29:51.835Z,47.56
2022-08-07T10:32:53.369Z,49.67
2022-08-07T10:35:55.837Z,48.99
2022-08-07T10:38:35.754Z,47.45
2022-08-07T10:41:15.302Z,46.60
2022-08-07T10:44:11.698Z,46.71
2022-08-07T10:47:00.595Z,46.26
2022-08-07T10:52:36.590Z,46.72
2022-08-07T10:55:26.824Z,47.96
2022-08-07T10:58:33.203Z,46.69
2022-08-07T11:01:17.380Z,47.29
2022-08-07T11:04:31.660Z,47.50
2022-08-07T11:07:14.846Z,46.49
2022-08-07T11:10:07.390Z,46.90
2022-08-07T11:12:49.186Z,47.32
2022-08-07T11:15:34.240Z,47.78
2022-08-07T11:18:14.413Z,46.71
2022-08-07T11:21:04.400Z,47.75
2022-08-07T11:23:54.247Z,47.07
2022-08-07T11:26:31.338Z,45.55
2022-08-07T11:29:13.202Z,46.10
2022-08-07T11:32:05.476Z,46.91
2022-08-07T11:34:49.092Z,45.92
2022-08-07T11:38:08.814Z,46.55
2022-08-07T11:41:11.118Z,46.14
2022-08-07T11:44:11.785Z,45.22
2022-08-07T11:47:10.005Z,45.32
2022-08-07T11:50:32.671Z,45.47
2022-08-07T11:53:35.272Z,43.72
2022-08-07T11:56:26.700Z,43.71
2022-08-07T12:00:09.819Z,46.37
2022-08-07T12:02:30.640Z,42.28
2022-08-07T12:05:49.196Z,43.91
2022-08-07T12:08:25.861Z,44.50
2022-08-07T12:11:21.953Z,43.39
2022-08-07T12:14:01.654Z,44.15
2022-08-07T12:16:31.568Z,45.97
2022-08-07T12:19:21.996Z,44.62
2022-08-07T12:22:37.500Z,44.22
2022-08-07T12:26:03.215Z,45.49
2022-08-07T12:28:44.871Z,46.06
2022-08-07T12:31:23.780Z,43.93
2022-08-07T12:34:01.133Z,44.92
2022-08-07T12:36:33.287Z,46.18
2022-08-07T12:39:42.362Z,45.03
2022-08-07T12:41:53.829Z,45.38
2022-08-07T12:44:21.607Z,44.54
2022-08-07T12:47:33.230Z,45.65
2022-08-07T12:50:39.537Z,44.48
2022-08-07T12:53:19.061Z,45.75
2022-08-07T12:56:10.407Z,45.23
2022-08-07T12:58:42.905Z,45.97
2022-08-07T13:01:19.331Z,44.82
2022-08-07T13:04:03.156Z,46.61
2022-08-07T13:06:54.346Z,46.80
2022-08-07T13:10:20.565Z,45.76
2022-08-07T13:13:07.864Z,45.89
2022-08-07T13:15:51.177Z,44.89
2022-08-07T13:18:34.197Z,45.70
2022-08-07T13:21:50.417Z,42.27
2022-08-07T13:24:25.826Z,43.63
2022-08-07T13:27:05.934Z,43.91
2022-08-07T13:29:50.907Z,43.13
2022-08-07T13:32:32.753Z,43.26
2022-08-07T13:35:09.361Z,41.73
2022-08-07T13:38:05.032Z,43.63
2022-08-07T13:40:54.200Z,42.45
2022-08-07T13:43:22.584Z,42.60
2022-08-07T13:46:11.999Z,40.66
2022-08-07T13:48:58.582Z,42.06
2022-08-07T13:52:05.011Z,40.96
2022-08-07T13:54:16.446Z,40.96
2022-08-07T13:56:55.830Z,40.34
2022-08-07T13:59:27.524Z,40.97
2022-08-07T14:02:08.370Z,40.98
2022-08-07T14:04:49.378Z,40.80
2022-08-07T14:07:21.320Z,40.92
2022-08-07T14:10:02.013Z,41.83
2022-08-07T14:13:00.831Z,40.62
2022-08-07T14:15:28.368Z,41.35
2022-08-07T14:18:24.187Z,41.43
2022-08-07T14:22:00.458Z,40.58
2022-08-07T14:24:06.198Z,42.25
2022-08-07T14:26:52.313Z,40.64
2022-08-07T14:30:05.140Z,40.65
2022-08-07T14:32:12.887Z,41.51
2022-08-07T14:34:46.020Z,41.73
2022-08-07T14:37:16.854Z,41.96
2022-08-07T14:40:17.214Z,40.29
2022-08-07T14:43:01.454Z,41.36
2022-08-07T14:45:47.058Z,40.86
2022-08-07T14:48:20.359Z,41.54
2022-08-07T14:50:55.222Z,43.50
2022-08-07T14:53:49.489Z,44.57
2022-08-07T14:56:14.032Z,43.85
2022-08-07T14:58:45.104Z,42.89
2022-08-07T15:01:21.814Z,43.69
2022-08-07T15:03:52.170Z,44.31
2022-08-07T15:06:40.141Z,44.29
2022-08-07T15:12:06.728Z,44.40
2022-08-07T15:14:36.027Z,43.42
2022-08-07T15:17:32.482Z,44.00
2022-08-07T15:20:32.475Z,43.25
2022-08-07T15:25:56.882Z,44.01
2022-08-07T15:28:32.930Z,44.55
2022-08-07T15:32:00.470Z,44.52
2022-08-07T15:34:04.878Z,44.86
2022-08-07T15:37:04.605Z,45.00
2022-08-07T15:39:25.885Z,45.59
2022-08-07T15:42:44.103Z,43.37
2022-08-07T15:50:37.797Z,44.92
2022-08-07T15:53:52.006Z,46.35
2022-08-07T15:56:24.555Z,45.10
2022-08-07T15:58:55.085Z,45.56
2022-08-07T16:01:39.161Z,45.41
2022-08-07T16:04:14.675Z,46.96
2022-08-07T16:06:55.731Z,46.46
2022-08-07T16:09:41.013Z,46.72
2022-08-07T16:12:28.499Z,46.77
2022-08-07T16:15:42.112Z,46.29
2022-08-07T16:18:50.004Z,46.30
2022-08-07T16:22:03.218Z,46.96
2022-08-07T16:24:40.633Z,47.58
2022-08-07T16:27:26.459Z,47.99
2022-08-07T16:30:30.864Z,48.26
2022-08-07T16:34:02.031Z,49.40
2022-08-07T16:36:20.337Z,49.32
2022-08-07T16:39:14.945Z,50.28
2022-08-07T16:42:21.597Z,51.55
2022-08-07T16:46:47.251Z,51.59
2022-08-07T16:48:53.839Z,50.59
2022-08-07T16:52:01.989Z,49.96
2022-08-07T16:54:54.883Z,50.19
2022-08-07T16:58:00.987Z,51.09
2022-08-07T17:00:29.777Z,51.07
2022-08-07T17:03:19.257Z,51.70
2022-08-07T17:06:31.097Z,52.39
2022-08-07T17:10:06.419Z,52.91
2022-08-07T17:12:45.216Z,52.75
2022-08-07T17:15:44.734Z,53.04
2022-08-07T17:18:38.618Z,52.96
2022-08-07T17:21:19.040Z,52.59
2022-08-07T17:24:01.932Z,53.97
2022-08-07T17:26:51.329Z,53.06
2022-08-07T17:30:15.779Z,52.48
2022-08-07T17:32:52.863Z,51.73
2022-08-07T17:35:55.388Z,52.64
2022-08-07T17:38:56.911Z,53.79
2022-08-07T17:42:01.943Z,52.93
2022-08-07T17:44:33.574Z,53.01
2022-08-07T17:47:17.013Z,52.67
2022-08-07T17:50:00.874Z,53.27
2022-08-07T17:52:39.696Z,52.42
2022-08-07T17:55:15.969Z,52.13
2022-08-07T17:58:07.169Z,52.06
2022-08-07T18:00:48.388Z,52.60
2022-08-07T18:04:03.642Z,53.98
2022-08-07T18:06:38.546Z,53.40
2022-08-07T18:09:08.697Z,53.33
2022-08-07T18:12:06.676Z,54.50
2022-08-07T18:14:44.897Z,53.29
2022-08-07T18:18:46.460Z,53.80
2022-08-07T18:21:06.352Z,55.04
2022-08-07T18:23:43.050Z,54.89
2022-08-07T18:26:14.727Z,55.84
2022-08-07T18:30:04.514Z,55.84
2022-08-07T18:32:33.638Z,55.90
2022-08-07T18:35:51.778Z,57.00
2022-08-07T18:38:57.755Z,56.80
2022-08-07T18:41:46.738Z,57.67
2022-08-07T18:44:25.228Z,57.36
2022-08-07T18:47:20.947Z,57.74
2022-08-07T18:50:35.424Z,60.55
2022-08-07T18:53:13.005Z,60.89
2022-08-07T18:56:07.639Z,61.39
2022-08-07T18:58:59.590Z,62.13
2022-08-07T19:02:18.037Z,62.67
2022-08-07T19:05:15.588Z,63.24
2022-08-07T19:07:58.787Z,63.76
2022-08-07T19:10:51.904Z,64.01
2022-08-07T19:13:43.874Z,64.20
2022-08-07T19:17:04.212Z,62.35
2022-08-07T19:19:41.295Z,62.49
2022-08-07T19:22:31.368Z,62.53
2022-08-07T19:25:06.403Z,62.93
2022-08-07T19:28:57.738Z,63.41
2022-08-07T19:31:05.751Z,64.24
2022-08-07T19:33:18.820Z,64.38
2022-08-07T19:36:01.689Z,64.38
2022-08-07T19:38:32.090Z,64.65
2022-08-07T19:41:00.555Z,65.24
2022-08-07T19:43:48.816Z,65.10
2022-08-07T19:46:26.388Z,64.89
2022-08-07T19:49:16.230Z,64.47
2022-08-07T19:51:53.030Z,64.43
2022-08-07T19:54:33.984Z,64.89
2022-08-07T19:57:59.983Z,64.82
2022-08-07T19:59:59.715Z,64.50
2022-08-07T20:02:33.480Z,65.13
2022-08-07T20:05:04.021Z,65.58
2022-08-07T20:07:47.855Z,66.42
2022-08-07T20:10:37.291Z,66.63
2022-08-07T20:13:22.861Z,66.59
2022-08-07T20:15:51.731Z,66.72
2022-08-07T20:18:21.918Z,66.29
2022-08-07T20:21:02.428Z,66.93
2022-08-07T20:23:41.599Z,67.37
2022-08-07T20:26:15.326Z,67.20
2022-08-07T20:28:59.181Z,67.87
2022-08-07T20:31:27.997Z,68.16
2022-08-07T20:33:57.540Z,67.98
2022-08-07T20:36:27.280Z,68.11
2022-08-07T20:39:00.364Z,68.57
2022-08-07T20:41:38.423Z,69.14
2022-08-07T20:44:10.451Z,68.15
2022-08-07T20:46:43.773Z,67.68
2022-08-07T20:50:00.583Z,67.04
2022-08-07T20:52:01.899Z,66.77
2022-08-07T20:54:33.278Z,66.32
2022-08-07T20:57:06.847Z,66.11
2022-08-07T21:00:07.010Z,65.77
2022-08-07T21:02:54.314Z,65.90
2022-08-07T21:05:25.724Z,65.46
2022-08-07T21:08:16.458Z,64.86
2022-08-07T21:10:49.267Z,65.18
2022-08-07T21:13:24.709Z,64.84
2022-08-07T21:16:09.128Z,64.96
2022-08-07T21:18:41.245Z,65.58
2022-08-07T21:21:16.459Z,65.30
2022-08-07T21:24:05.980Z,65.52
2022-08-07T21:26:53.633Z,65.60
2022-08-07T21:29:33.438Z,66.21
2022-08-07T21:32:43.776Z,66.50
2022-08-07T21:36:06.495Z,65.71
2022-08-07T21:38:45.725Z,65.63
2022-08-07T21:41:27.057Z,65.33
2022-08-07T21:44:34.494Z,66.36
2022-08-07T21:47:23.637Z,65.45
2022-08-07T21:50:03.287Z,66.02
2022-08-07T21:52:59.954Z,66.50
2022-08-07T21:55:57.228Z,66.10
2022-08-07T21:58:35.262Z,65.65
2022-08-07T22:01:20.745Z,65.92
2022-08-07T22:04:20.174Z,65.24
2022-08-07T22:06:57.564Z,65.40
2022-08-07T22:09:34.737Z,65.54
2022-08-07T22:12:34.827Z,65.89
2022-08-07T22:16:45.173Z,66.43
2022-08-07T22:18:07.183Z,67.58
2022-08-07T22:21:12.866Z,68.32
2022-08-07T22:24:16.155Z,68.02
2022-08-07T22:26:49.476Z,68.07
2022-08-07T22:29:33.818Z,68.11
2022-08-07T22:32:06.857Z,68.23
2022-08-07T22:34:55.543Z,67.83
2022-08-07T22:38:03.455Z,67.71
2022-08-07T22:40:49.556Z,68.55
2022-08-07T22:43:31.366Z,68.84
2022-08-07T22:47:02.265Z,68.69
2022-08-07T22:49:39.793Z,68.64
2022-08-07T22:52:51.190Z,69.09
2022-08-07T22:55:47.450Z,69.33
2022-08-07T22:58:42.645Z,69.13
2022-08-07T23:01:50.810Z,69.73
2022-08-07T23:04:58.099Z,69.49
2022-08-07T23:08:05.824Z,69.61
2022-08-07T23:10:48.825Z,69.84
2022-08-07T23:14:15.309Z,69.96
2022-08-07T23:17:24.693Z,70.28
2022-08-07T23:20:40.563Z,70.31
2022-08-07T23:24:05.396Z,71.05
2022-08-07T23:26:35.523Z,71.38
2022-08-07T23:29:44.070Z,71.54
2022-08-07T23:34:20.879Z,71.42
2022-08-07T23:35:28.301Z,70.90
2022-08-07T23:38:36.820Z,70.75
2022-08-07T23:41:33.446Z,70.83
2022-08-07T23:44:09.010Z,71.17
2022-08-07T23:47:12.562Z,71.94
2022-08-07T23:50:00.994Z,71.89
2022-08-07T23:52:59.624Z,71.58
2022-08-07T23:55:55.675Z,72.19
2022-08-07T23:58:37.222Z,72.25
